createdAt,value
2023-02-22T00:01:50.886Z,77.28
2023-02-22T00:06:48.025Z,77.33
2023-02-22T00:11:48.765Z,77.07
2023-02-22T00:16:45.467Z,77.15
2023-02-22T00:21:44.864Z,77.26
2023-02-22T00:26:41.556Z,77.25
2023-02-22T00:31:39.363Z,77.02
2023-02-22T00:36:36.081Z,77.36
2023-02-22T00:41:32.816Z,76.98
2023-02-22T00:46:32.266Z,77.08
2023-02-22T00:51:28.998Z,77.02
2023-02-22T00:56:25.493Z,77.49
2023-02-22T01:01:24.057Z,77.13
2023-02-22T01:06:21.085Z,77.19
2023-02-22T01:11:18.024Z,77.06
2023-02-22T01:16:14.900Z,77.01
2023-02-22T01:21:11.601Z,77.23
2023-02-22T01:26:08.163Z,77.21
2023-02-22T01:31:05.577Z,77.47
2023-02-22T01:36:02.199Z,77.36
2023-02-22T01:40:59.017Z,77.82
2023-02-22T01:46:01.285Z,77.79
2023-02-22T01:51:10.957Z,77.73
2023-02-22T01:56:07.977Z,77.39
2023-02-22T02:01:04.690Z,77.96
2023-02-22T02:06:03.066Z,77.66
2023-02-22T02:11:00.013Z,77.95
2023-02-22T02:15:57.017Z,77.69
2023-02-22T02:21:32.074Z,77.91
2023-02-22T02:26:57.928Z,78.07
2023-02-22T02:32:06.287Z,78.05
2023-02-22T02:37:11.411Z,78.42
2023-02-22T02:42:14.620Z,77.91
2023-02-22T02:47:17.843Z,78.17
2023-02-22T02:52:25.354Z,78.38
2023-02-22T02:57:21.996Z,77.90
2023-02-22T03:02:39.732Z,77.89
2023-02-22T03:07:57.875Z,77.89
2023-02-22T03:12:58.479Z,77.93
2023-02-22T03:18:00.844Z,78.23
2023-02-22T03:23:07.356Z,78.36
2023-02-22T03:28:07.501Z,78.27
2023-02-22T03:33:09.130Z,78.10
2023-02-22T03:38:08.439Z,77.93
2023-02-22T03:43:15.998Z,77.98
2023-02-22T03:48:39.156Z,78.09
2023-02-22T03:53:38.937Z,77.83
2023-02-22T03:58:37.865Z,78.15
2023-02-22T04:03:34.495Z,78.16
2023-02-22T04:08:31.212Z,78.27
2023-02-22T04:13:28.463Z,78.21
2023-02-22T04:18:25.009Z,78.01
2023-02-22T04:23:21.745Z,77.97
2023-02-22T04:28:18.970Z,78.15
2023-02-22T04:33:50.561Z,77.80
2023-02-22T04:44:54.310Z,77.96
2023-02-22T04:49:51.193Z,77.86
2023-02-22T04:54:47.768Z,78.01
2023-02-22T05:12:53.062Z,78.04
2023-02-22T05:17:49.949Z,78.11
2023-02-22T05:22:48.422Z,78.09
2023-02-22T05:27:45.208Z,78.43
2023-02-22T05:32:41.765Z,78.13
2023-02-22T05:37:38.924Z,78.29
2023-02-22T05:42:37.673Z,78.35
2023-02-22T05:47:34.289Z,78.54
2023-02-22T05:52:30.880Z,78.57
2023-02-22T05:57:27.413Z,78.33
2023-02-22T06:02:25.044Z,78.61
2023-02-22T06:07:22.628Z,78.40
2023-02-22T06:12:19.256Z,78.58
2023-02-22T06:17:16.042Z,78.38
2023-02-22T06:22:16.999Z,78.42
2023-02-22T06:27:13.471Z,78.82
2023-02-22T06:32:09.931Z,78.61
2023-02-22T06:37:08.345Z,78.54
2023-02-22T06:42:07.909Z,78.83
2023-02-22T06:47:04.517Z,78.69
2023-02-22T06:52:01.039Z,78.90
2023-02-22T07:12:26.067Z,79.25
2023-02-22T07:17:28.155Z,79.25
2023-02-22T07:22:32.916Z,79.10
2023-02-22T07:27:31.342Z,79.25
2023-02-22T07:32:29.197Z,79.03
2023-02-22T07:37:25.722Z,79.18
2023-02-22T07:42:24.611Z,79.33
2023-02-22T07:47:21.148Z,79.11
2023-02-22T07:52:19.772Z,79.31
2023-02-22T07:57:16.434Z,79.32
2023-02-22T08:02:16.047Z,79.47
2023-02-22T08:07:12.663Z,79.56
2023-02-22T08:12:09.252Z,79.42
2023-02-22T08:17:07.719Z,79.58
2023-02-22T08:22:11.658Z,79.49
2023-02-22T08:27:11.083Z,79.52
2023-02-22T08:32:12.310Z,79.46
2023-02-22T08:37:14.452Z,79.32
2023-02-22T08:42:22.126Z,79.59
2023-02-22T08:47:22.016Z,79.56
2023-02-22T08:52:21.680Z,79.30
2023-02-22T08:57:20.748Z,79.16
2023-02-22T09:02:23.873Z,79.33
2023-02-22T09:07:25.210Z,79.06
2023-02-22T09:17:39.678Z,79.40
2023-02-22T09:22:36.312Z,79.41
2023-02-22T09:27:35.865Z,79.13
2023-02-22T09:37:58.067Z,78.45
2023-02-22T09:43:16.941Z,78.28
2023-02-22T09:48:21.590Z,78.02
2023-02-22T09:53:31.870Z,77.98
2023-02-22T09:58:34.760Z,78.04
2023-02-22T10:03:54.592Z,77.97
2023-02-22T10:09:16.371Z,78.19
2023-02-22T10:14:48.160Z,78.42
2023-02-22T10:20:10.899Z,78.44
2023-02-22T10:25:14.870Z,78.11
2023-02-22T10:30:34.003Z,77.87
2023-02-22T10:35:34.275Z,77.57
2023-02-22T10:40:33.832Z,77.56
2023-02-22T10:45:34.741Z,77.46
2023-02-22T10:50:35.035Z,77.18
2023-02-22T10:55:35.118Z,77.14
2023-02-22T11:00:39.654Z,76.59
2023-02-22T11:05:41.692Z,76.26
2023-02-22T11:10:45.047Z,75.30
2023-02-22T11:15:45.237Z,75.11
2023-02-22T11:20:42.344Z,75.29
2023-02-22T11:25:44.978Z,74.87
2023-02-22T11:30:44.617Z,74.86
2023-02-22T11:41:42.818Z,73.69
2023-02-22T11:46:53.856Z,73.97
2023-02-22T11:58:09.172Z,73.06
2023-02-22T12:09:14.301Z,72.87
2023-02-22T12:14:25.388Z,71.93
2023-02-22T12:20:14.272Z,71.36
2023-02-22T12:25:23.749Z,70.67
2023-02-22T12:36:04.146Z,70.15
2023-02-22T12:41:45.299Z,69.67
2023-02-22T12:47:47.112Z,69.19
2023-02-22T12:58:43.047Z,69.09
2023-02-22T13:16:46.363Z,68.96
2023-02-22T13:22:00.393Z,68.70
2023-02-22T13:27:38.504Z,67.68
2023-02-22T13:33:15.880Z,68.31
2023-02-22T13:45:03.944Z,67.57
2023-02-22T13:50:28.265Z,67.26
2023-02-22T14:07:47.809Z,67.43
2023-02-22T14:25:09.817Z,67.22
2023-02-22T14:36:07.884Z,67.86
2023-02-22T14:41:24.866Z,68.12
2023-02-22T14:46:32.218Z,68.27
2023-02-22T14:51:40.809Z,68.13
2023-02-22T15:02:46.509Z,68.62
2023-02-22T15:19:51.066Z,69.34
2023-02-22T15:25:00.913Z,69.56
2023-02-22T15:30:07.459Z,69.49
2023-02-22T15:35:31.159Z,70.02
2023-02-22T15:40:43.650Z,69.97
2023-02-22T15:45:43.287Z,70.18
2023-02-22T15:51:05.276Z,70.42
2023-02-22T15:56:09.590Z,70.29
2023-02-22T16:18:00.887Z,70.74
2023-02-22T16:23:00.676Z,70.70
2023-02-22T16:28:03.179Z,70.60
2023-02-22T16:33:10.908Z,71.10
2023-02-22T16:39:14.667Z,71.00
2023-02-22T17:08:35.664Z,71.56
2023-02-22T17:46:42.947Z,72.87
2023-02-22T21:40:23.679Z,75.55
2023-02-22T21:45:21.674Z,75.71
2023-02-22T21:50:19.114Z,76.01
2023-02-22T21:55:15.878Z,75.56
2023-02-22T22:16:24.194Z,75.87
2023-02-22T22:21:41.420Z,75.80
2023-02-22T22:26:38.696Z,75.59
2023-02-22T22:31:35.440Z,75.93
2023-02-22T22:36:45.029Z,76.03
2023-02-22T22:41:48.048Z,75.65
2023-02-22T22:46:48.977Z,75.89
2023-02-22T22:57:48.354Z,75.80
2023-02-22T23:02:48.470Z,76.03
2023-02-22T23:07:45.097Z,75.50
2023-02-22T23:12:48.961Z,75.50
2023-02-22T23:18:44.213Z,75.69
2023-02-22T23:40:55.301Z,76.11
2023-02-22T23:58:09.503Z,75.79
